Time;durP1;ratioP1;P1;durP2;ratioP2;P2;SDS_P1;SDS_P2;PMS_P1;PMS_P2;Temp;Humidity;BMP_temperature;BMP_pressure;BME280_temperature;BME280_humidity;BME280_pressure;Samples;Min_cycle;Max_cycle;Signal;HPM_P1;HPM_P2
2024/01/22 00:00:25;;;;;;;25.15;12.45;;;;;;;;;;6167704;23;20488;-79
2024/01/22 00:03:11;;;;;;;28.70;13.32;;;;;;;;;;6166928;23;20047;-79
2024/01/22 00:05:58;;;;;;;26.90;14.40;;;;;;;;;;6166816;23;20020;-78
2024/01/22 00:08:47;;;;;;;32.03;12.27;;;;;;;;;;6143543;23;20028;-78
2024/01/22 00:11:35;;;;;;;31.92;13.70;;;;;;;;;;6165270;23;20056;-78
2024/01/22 00:14:21;;;;;;;25.67;12.60;;;;;;;;;;6164023;23;20029;-78
2024/01/22 00:17:07;;;;;;;21.63;11.00;;;;;;;;;;6164515;23;20021;-78
2024/01/22 00:19:55;;;;;;;23.02;12.45;;;;;;;;;;6165416;23;20047;-78
2024/01/22 00:22:42;;;;;;;29.23;13.70;;;;;;;;;;6165149;23;20029;-78
2024/01/22 00:25:28;;;;;;;26.05;11.93;;;;;;;;;;6158028;23;20342;-78
2024/01/22 00:28:17;;;;;;;28.08;13.57;;;;;;;;;;6163759;23;20024;-79
2024/01/22 00:31:05;;;;;;;24.90;13.80;;;;;;;;;;6164045;23;20034;-79
2024/01/22 00:33:51;;;;;;;25.08;11.73;;;;;;;;;;6163665;23;20032;-79
2024/01/22 00:36:37;;;;;;;23.92;11.35;;;;;;;;;;6153623;23;20021;-79
2024/01/22 00:39:29;;;;;;;23.83;12.73;;;;;;;;;;6143729;23;20078;-79
2024/01/22 00:42:15;;;;;;;19.92;10.52;;;;;;;;;;6164048;23;20028;-79
2024/01/22 00:45:01;;;;;;;25.17;11.57;;;;;;;;;;6143490;23;20029;-78
2024/01/22 00:47:46;;;;;;;21.17;11.10;;;;;;;;;;6163368;23;20021;-78
2024/01/22 00:50:35;;;;;;;18.08;10.73;;;;;;;;;;6165403;23;20025;-78
2024/01/22 00:53:23;;;;;;;24.17;13.38;;;;;;;;;;6164651;23;20028;-79
2024/01/22 00:56:13;;;;;;;26.02;12.05;;;;;;;;;;6163544;23;20551;-79
2024/01/22 00:59:02;;;;;;;20.90;10.95;;;;;;;;;;6163449;23;20028;-79
2024/01/22 01:01:48;;;;;;;20.67;11.25;;;;;;;;;;6157826;23;20008;-79
2024/01/22 01:04:36;;;;;;;17.52;10.93;;;;;;;;;;6171618;23;20069;-78
2024/01/22 01:07:24;;;;;;;25.80;12.52;;;;;;;;;;6144192;23;20501;-78
2024/01/22 01:10:11;;;;;;;20.63;10.45;;;;;;;;;;6163694;23;20028;-78
2024/01/22 01:13:00;;;;;;;22.05;10.40;;;;;;;;;;6142046;23;20032;-78
2024/01/22 01:15:46;;;;;;;16.55;10.00;;;;;;;;;;6161756;23;20024;-78
2024/01/22 01:18:35;;;;;;;23.50;9.88;;;;;;;;;;6164101;23;20020;-78
2024/01/22 01:21:23;;;;;;;24.13;12.70;;;;;;;;;;6165493;23;20717;-79
2024/01/22 01:24:09;;;;;;;22.95;11.63;;;;;;;;;;6141817;23;20032;-79
2024/01/22 01:26:55;;;;;;;21.23;9.82;;;;;;;;;;6177648;23;20024;-79
2024/01/22 01:29:45;;;;;;;20.40;10.68;;;;;;;;;;6143416;23;20354;-79
2024/01/22 01:32:33;;;;;;;18.15;9.68;;;;;;;;;;6163637;23;20025;-79
2024/01/22 01:35:19;;;;;;;22.00;11.20;;;;;;;;;;6163499;23;20029;-79
2024/01/22 01:38:09;;;;;;;21.23;10.50;;;;;;;;;;6164626;23;20025;-79
2024/01/22 01:40:58;;;;;;;18.98;9.93;;;;;;;;;;6163397;23;20350;-79
2024/01/22 01:43:44;;;;;;;28.55;12.50;;;;;;;;;;6141904;23;20025;-79
2024/01/22 01:46:30;;;;;;;24.13;12.82;;;;;;;;;;6160562;23;20033;-79
2024/01/22 01:49:18;;;;;;;20.38;10.98;;;;;;;;;;6163874;23;20025;-79
2024/01/22 01:52:07;;;;;;;15.75;8.30;;;;;;;;;;6143252;23;20028;-79
2024/01/22 01:54:53;;;;;;;25.35;11.30;;;;;;;;;;6162466;23;20473;-79
2024/01/22 01:57:42;;;;;;;26.95;12.23;;;;;;;;;;6141724;23;20350;-79
2024/01/22 02:00:31;;;;;;;14.48;6.93;;;;;;;;;;6142923;23;20472;-79
2024/01/22 02:03:19;;;;;;;22.48;10.25;;;;;;;;;;6142016;23;20024;-79
2024/01/22 02:06:05;;;;;;;19.02;10.55;;;;;;;;;;6163398;23;20029;-79
2024/01/22 02:08:54;;;;;;;21.02;9.80;;;;;;;;;;6165106;23;20025;-79
2024/01/22 02:11:42;;;;;;;16.40;9.68;;;;;;;;;;6142099;23;20024;-79
2024/01/22 02:14:31;;;;;;;20.55;9.15;;;;;;;;;;6163165;23;20342;-79
2024/01/22 02:17:18;;;;;;;19.65;10.90;;;;;;;;;;6141882;23;20018;-79
2024/01/22 02:20:09;;;;;;;18.55;10.55;;;;;;;;;;6146307;23;20549;-80
2024/01/22 02:23:01;;;;;;;;;;;;;;;;;;6168097;23;20508;-79
2024/01/22 02:25:50;;;;;;;12.93;8.18;;;;;;;;;;6166315;23;20273;-79
2024/01/22 02:28:38;;;;;;;14.27;8.45;;;;;;;;;;6166464;23;20021;-79
2024/01/22 02:31:26;;;;;;;17.92;9.88;;;;;;;;;;6164364;23;20028;-79
2024/01/22 02:34:12;;;;;;;15.30;8.68;;;;;;;;;;6163073;23;20021;-78
2024/01/22 02:36:58;;;;;;;22.33;9.98;;;;;;;;;;6161953;23;20021;-78
2024/01/22 02:39:45;;;;;;;20.13;9.75;;;;;;;;;;6162415;23;20030;-78
2024/01/22 02:42:36;;;;;;;22.70;10.45;;;;;;;;;;6142305;23;20034;-78
2024/01/22 02:45:22;;;;;;;12.70;8.35;;;;;;;;;;6162814;23;20025;-78
2024/01/22 02:48:13;;;;;;;19.45;9.15;;;;;;;;;;6163431;23;20020;-78
2024/01/22 02:51:01;;;;;;;21.73;10.88;;;;;;;;;;6163534;23;20373;-78
2024/01/22 02:53:47;;;;;;;24.92;11.73;;;;;;;;;;6163152;23;20028;-79
2024/01/22 02:56:34;;;;;;;22.02;10.25;;;;;;;;;;6142128;23;20037;-79
2024/01/22 02:59:20;;;;;;;19.65;10.15;;;;;;;;;;6163219;23;20484;-79
2024/01/22 03:02:09;;;;;;;20.55;10.35;;;;;;;;;;6162536;23;20033;-79
2024/01/22 03:04:57;;;;;;;19.10;9.98;;;;;;;;;;6164557;23;20028;-79
2024/01/22 03:07:44;;;;;;;20.70;10.32;;;;;;;;;;6127317;23;20017;-79
2024/01/22 03:10:30;;;;;;;19.67;10.60;;;;;;;;;;6163694;23;20029;-79
2024/01/22 03:13:17;;;;;;;24.48;10.38;;;;;;;;;;6157300;23;20020;-76
2024/01/22 03:16:06;;;;;;;17.55;10.30;;;;;;;;;;6160315;23;20032;-76
2024/01/22 03:18:52;;;;;;;17.33;10.80;;;;;;;;;;6162992;23;20029;-76
2024/01/22 03:21:38;;;;;;;20.17;10.57;;;;;;;;;;6120805;23;20028;-76
2024/01/22 03:24:24;;;;;;;20.63;9.23;;;;;;;;;;6140455;23;20028;-76
2024/01/22 03:27:12;;;;;;;16.00;9.25;;;;;;;;;;6133317;23;20032;-76
2024/01/22 03:30:02;;;;;;;17.75;9.68;;;;;;;;;;6141191;23;20026;-76
2024/01/22 03:32:47;;;;;;;15.35;9.23;;;;;;;;;;6141003;23;20024;-76
2024/01/22 03:35:33;;;;;;;17.73;10.40;;;;;;;;;;6142541;23;20034;-76
2024/01/22 03:38:19;;;;;;;24.67;9.43;;;;;;;;;;6121248;23;20477;-75
2024/01/22 03:41:04;;;;;;;18.95;10.60;;;;;;;;;;6142666;23;20044;-75
2024/01/22 03:43:50;;;;;;;22.13;10.68;;;;;;;;;;6121484;23;20029;-75
2024/01/22 03:46:38;;;;;;;20.40;9.75;;;;;;;;;;6137306;23;20032;-75
2024/01/22 03:49:23;;;;;;;20.50;9.63;;;;;;;;;;6142199;23;20018;-75
2024/01/22 03:52:09;;;;;;;19.70;10.65;;;;;;;;;;6143538;23;20029;-75
2024/01/22 03:54:56;;;;;;;20.77;10.57;;;;;;;;;;6142113;23;20024;-75
2024/01/22 03:57:44;;;;;;;22.42;9.52;;;;;;;;;;6120952;23;20024;-75
2024/01/22 04:00:32;;;;;;;17.13;9.05;;;;;;;;;;6121683;23;20023;-75
2024/01/22 04:03:19;;;;;;;21.17;10.27;;;;;;;;;;6142368;23;20018;-75
2024/01/22 04:06:06;;;;;;;23.02;10.63;;;;;;;;;;6122212;23;20028;-76
2024/01/22 04:08:51;;;;;;;19.10;10.80;;;;;;;;;;6141820;23;20029;-76
2024/01/22 04:11:41;;;;;;;19.05;10.65;;;;;;;;;;6143303;23;20036;-76
2024/01/22 04:14:29;;;;;;;16.33;8.88;;;;;;;;;;6133283;23;20358;-76
2024/01/22 04:17:17;;;;;;;20.08;9.75;;;;;;;;;;6156493;23;20029;-76
2024/01/22 04:20:06;;;;;;;19.77;9.68;;;;;;;;;;6141686;23;20029;-76
2024/01/22 04:22:52;;;;;;;19.83;9.63;;;;;;;;;;6142426;23;20029;-76
2024/01/22 04:25:38;;;;;;;21.10;10.07;;;;;;;;;;6142396;23;20021;-76
2024/01/22 04:28:24;;;;;;;14.88;9.27;;;;;;;;;;6141584;23;20024;-76
2024/01/22 04:31:12;;;;;;;19.15;9.73;;;;;;;;;;6141992;23;20029;-76
2024/01/22 04:33:58;;;;;;;29.55;11.48;;;;;;;;;;6164190;23;20384;-76
2024/01/22 04:36:48;;;;;;;20.83;11.10;;;;;;;;;;6142514;23;20028;-76
2024/01/22 04:39:35;;;;;;;20.45;10.63;;;;;;;;;;6141131;23;20029;-76
2024/01/22 04:42:21;;;;;;;19.92;10.13;;;;;;;;;;6142220;23;20032;-76
2024/01/22 04:45:10;;;;;;;19.02;8.90;;;;;;;;;;6163707;23;20560;-76
2024/01/22 04:47:58;;;;;;;18.33;9.93;;;;;;;;;;6164714;23;20024;-75
2024/01/22 04:50:47;;;;;;;20.55;10.05;;;;;;;;;;6141867;23;20358;-75
2024/01/22 04:53:37;;;;;;;17.75;10.10;;;;;;;;;;6163806;23;20357;-75
2024/01/22 04:56:23;;;;;;;20.30;9.02;;;;;;;;;;6160524;23;20028;-75
2024/01/22 04:59:09;;;;;;;20.08;9.73;;;;;;;;;;6121480;23;20021;-75
2024/01/22 05:01:54;;;;;;;21.98;10.52;;;;;;;;;;6163518;23;20036;-75
2024/01/22 05:04:45;;;;;;;20.83;10.98;;;;;;;;;;6164192;23;20024;-75
2024/01/22 05:07:31;;;;;;;17.02;10.07;;;;;;;;;;6155943;23;20028;-76
2024/01/22 05:10:21;;;;;;;18.63;10.48;;;;;;;;;;6142491;23;20040;-76
2024/01/22 05:13:09;;;;;;;23.08;9.93;;;;;;;;;;6138065;23;20028;-76
2024/01/22 05:15:55;;;;;;;15.63;10.05;;;;;;;;;;6139650;23;20496;-76
2024/01/22 05:18:44;;;;;;;20.73;10.43;;;;;;;;;;6164125;23;20496;-76
2024/01/22 05:21:30;;;;;;;17.25;9.95;;;;;;;;;;6141534;23;20029;-76
2024/01/22 05:24:16;;;;;;;21.63;10.15;;;;;;;;;;6141578;23;20362;-76
2024/01/22 05:27:08;;;;;;;21.63;11.18;;;;;;;;;;6156700;23;20040;-76
2024/01/22 05:29:56;;;;;;;20.77;11.40;;;;;;;;;;6163787;23;20338;-76
2024/01/22 05:32:45;;;;;;;20.63;9.80;;;;;;;;;;6163926;23;20029;-76
2024/01/22 05:35:34;;;;;;;21.80;11.02;;;;;;;;;;6141623;23;20037;-76
2024/01/22 05:38:19;;;;;;;24.58;11.50;;;;;;;;;;6141869;23;20024;-76
2024/01/22 05:41:05;;;;;;;19.38;10.25;;;;;;;;;;6121024;23;20033;-76
2024/01/22 05:43:54;;;;;;;21.88;10.77;;;;;;;;;;6162837;23;20029;-75
2024/01/22 05:46:40;;;;;;;19.73;10.95;;;;;;;;;;6136311;23;20028;-75
2024/01/22 05:49:26;;;;;;;22.35;11.73;;;;;;;;;;6164109;23;20029;-75
2024/01/22 05:52:12;;;;;;;21.42;9.88;;;;;;;;;;6163010;23;20066;-75
2024/01/22 05:55:01;;;;;;;20.38;10.45;;;;;;;;;;6141108;23;20552;-75
2024/01/22 05:57:49;;;;;;;22.30;9.63;;;;;;;;;;6120838;23;20024;-75
2024/01/22 06:00:41;;;;;;;20.92;10.82;;;;;;;;;;6141509;23;20013;-75
2024/01/22 06:03:27;;;;;;;19.95;11.63;;;;;;;;;;6140759;23;20053;-75
2024/01/22 06:06:15;;;;;;;23.23;10.68;;;;;;;;;;6120574;23;20028;-76
2024/01/22 06:09:02;;;;;;;15.15;8.70;;;;;;;;;;6120643;23;20338;-76
2024/01/22 06:11:50;;;;;;;18.98;10.30;;;;;;;;;;6140651;23;20028;-76
2024/01/22 06:14:38;;;;;;;27.45;11.82;;;;;;;;;;6120079;23;20029;-76
2024/01/22 06:17:30;;;;;;;22.08;9.98;;;;;;;;;;6155604;23;20026;-76
2024/01/22 06:20:19;;;;;;;15.57;8.90;;;;;;;;;;6141265;23;20020;-77
2024/01/22 06:23:07;;;;;;;24.85;11.82;;;;;;;;;;6119324;23;20025;-76
2024/01/22 06:25:53;;;;;;;19.30;11.27;;;;;;;;;;6120512;23;20028;-76
2024/01/22 06:28:42;;;;;;;17.90;10.00;;;;;;;;;;6141193;23;20033;-76
2024/01/22 06:31:27;;;;;;;21.52;11.68;;;;;;;;;;6141514;23;20029;-76
2024/01/22 06:34:14;;;;;;;19.98;10.40;;;;;;;;;;6140557;23;20032;-76
2024/01/22 06:37:00;;;;;;;24.73;11.02;;;;;;;;;;6156421;23;20028;-76
2024/01/22 06:39:48;;;;;;;20.60;10.80;;;;;;;;;;6140538;23;20018;-76
2024/01/22 06:42:34;;;;;;;20.30;11.40;;;;;;;;;;6141776;23;20028;-76
2024/01/22 06:45:22;;;;;;;22.58;10.40;;;;;;;;;;6120175;23;20028;-76
2024/01/22 06:48:11;;;;;;;19.58;10.88;;;;;;;;;;6163570;23;20366;-76
2024/01/22 06:51:01;;;;;;;20.02;9.90;;;;;;;;;;6162322;23;20484;-77
2024/01/22 06:53:47;;;;;;;18.98;9.10;;;;;;;;;;6140905;23;20021;-76
2024/01/22 06:56:32;;;;;;;24.30;10.48;;;;;;;;;;6136478;23;20021;-76
2024/01/22 06:59:18;;;;;;;21.30;10.75;;;;;;;;;;6120252;23;20025;-76
2024/01/22 07:02:07;;;;;;;20.17;10.75;;;;;;;;;;6163586;23;20448;-76
2024/01/22 07:04:56;;;;;;;19.48;10.35;;;;;;;;;;6162857;23;20024;-76
2024/01/22 07:07:43;;;;;;;21.35;10.43;;;;;;;;;;6154653;23;20029;-76
2024/01/22 07:10:34;;;;;;;26.55;12.65;;;;;;;;;;6142853;23;20481;-76
2024/01/22 07:13:23;;;;;;;27.92;11.95;;;;;;;;;;6121568;23;20498;-76
2024/01/22 07:16:08;;;;;;;22.27;12.18;;;;;;;;;;6143099;23;20072;-76
2024/01/22 07:18:54;;;;;;;20.77;10.95;;;;;;;;;;6121791;23;20030;-76
2024/01/22 07:21:46;;;;;;;18.10;9.05;;;;;;;;;;6122029;23;20481;-77
2024/01/22 07:24:35;;;;;;;16.10;9.35;;;;;;;;;;6163917;23;20021;-76
2024/01/22 07:27:21;;;;;;;19.25;10.20;;;;;;;;;;6143131;23;20080;-76
2024/01/22 07:30:11;;;;;;;19.80;9.70;;;;;;;;;;6165285;23;20021;-76
2024/01/22 07:32:57;;;;;;;17.35;10.65;;;;;;;;;;6142922;23;20469;-76
2024/01/22 07:35:44;;;;;;;20.48;10.20;;;;;;;;;;6122247;23;20370;-76
2024/01/22 07:38:30;;;;;;;21.42;10.60;;;;;;;;;;6165273;23;20460;-76
2024/01/22 07:41:19;;;;;;;22.38;11.65;;;;;;;;;;6142766;23;20026;-76
2024/01/22 07:44:05;;;;;;;19.83;11.07;;;;;;;;;;6142232;23;20497;-76
2024/01/22 07:46:51;;;;;;;23.40;11.43;;;;;;;;;;6121608;23;20028;-76
2024/01/22 07:49:40;;;;;;;20.92;10.13;;;;;;;;;;6161369;23;20374;-76
2024/01/22 07:52:26;;;;;;;20.33;10.60;;;;;;;;;;6139201;23;20025;-75
2024/01/22 07:55:13;;;;;;;18.92;10.18;;;;;;;;;;6142141;23;20036;-76
2024/01/22 07:58:00;;;;;;;20.25;10.23;;;;;;;;;;6142235;23;20025;-76
2024/01/22 08:00:48;;;;;;;19.65;8.95;;;;;;;;;;6121752;23;20382;-76
2024/01/22 08:03:35;;;;;;;18.48;9.45;;;;;;;;;;6142313;23;20017;-76
2024/01/22 08:06:20;;;;;;;21.25;10.45;;;;;;;;;;6142189;23;20021;-77
2024/01/22 08:09:09;;;;;;;16.00;9.57;;;;;;;;;;6164432;23;20351;-76
2024/01/22 08:11:57;;;;;;;21.27;9.43;;;;;;;;;;6142133;23;20022;-76
2024/01/22 08:14:44;;;;;;;17.98;9.40;;;;;;;;;;6120866;23;20021;-76
2024/01/22 08:17:30;;;;;;;24.63;12.18;;;;;;;;;;6142167;23;20021;-76
2024/01/22 08:20:18;;;;;;;23.67;11.10;;;;;;;;;;6120537;23;20017;-76
2024/01/22 08:23:04;;;;;;;17.42;8.95;;;;;;;;;;6141425;23;20021;-76
2024/01/22 08:25:50;;;;;;;17.77;10.02;;;;;;;;;;6120594;23;20021;-76
2024/01/22 08:28:36;;;;;;;24.13;12.38;;;;;;;;;;6164393;23;20524;-76
2024/01/22 08:31:26;;;;;;;19.25;10.25;;;;;;;;;;6142652;23;20023;-77
2024/01/22 08:34:12;;;;;;;20.92;10.80;;;;;;;;;;6140969;23;20481;-76
2024/01/22 08:36:58;;;;;;;19.30;8.32;;;;;;;;;;6142477;23;20029;-76
2024/01/22 08:39:47;;;;;;;16.58;8.52;;;;;;;;;;6142437;23;20022;-76
2024/01/22 08:42:35;;;;;;;17.23;9.23;;;;;;;;;;6142433;23;20068;-76
2024/01/22 08:45:24;;;;;;;16.65;9.23;;;;;;;;;;6162805;23;20018;-76
2024/01/22 08:48:11;;;;;;;15.25;9.35;;;;;;;;;;6121519;23;20022;-76
2024/01/22 08:50:57;;;;;;;17.63;8.70;;;;;;;;;;6121916;23;20021;-76
2024/01/22 08:53:44;;;;;;;16.52;8.63;;;;;;;;;;6141023;23;20021;-76
2024/01/22 08:56:29;;;;;;;17.95;10.63;;;;;;;;;;6142205;23;20017;-76
2024/01/22 08:59:18;;;;;;;16.70;8.10;;;;;;;;;;6121205;23;20017;-76
2024/01/22 09:02:06;;;;;;;12.68;5.88;;;;;;;;;;6121160;23;20308;-76
2024/01/22 09:04:56;;;;;;;10.20;4.05;;;;;;;;;;6164058;23;20453;-76
2024/01/22 09:07:42;;;;;;;6.70;2.28;;;;;;;;;;6132750;23;20030;-76
2024/01/22 09:10:31;;;;;;;2.22;1.50;;;;;;;;;;6162442;23;20013;-76
2024/01/22 09:13:18;;;;;;;8.88;1.58;;;;;;;;;;6186560;22;20012;-77
2024/01/22 09:16:03;;;;;;;3.03;1.15;;;;;;;;;;6172056;23;20017;-77
2024/01/22 09:18:55;;;;;;;1.92;1.00;;;;;;;;;;6170913;23;20017;-77
2024/01/22 09:21:45;;;;;;;2.33;1.17;;;;;;;;;;6148485;23;20013;-77
2024/01/22 09:24:32;;;;;;;3.65;1.27;;;;;;;;;;6139989;23;20025;-77
2024/01/22 09:27:18;;;;;;;2.25;0.90;;;;;;;;;;6151525;23;20025;-78
2024/01/22 09:30:04;;;;;;;2.88;0.90;;;;;;;;;;6142108;23;20013;-78
2024/01/22 09:32:52;;;;;;;3.47;0.90;;;;;;;;;;6165376;23;20536;-77
2024/01/22 09:35:41;;;;;;;4.70;1.13;;;;;;;;;;6148869;23;20021;-77
2024/01/22 09:38:29;;;;;;;3.63;1.15;;;;;;;;;;6150208;23;20013;-77
2024/01/22 09:41:14;;;;;;;2.42;1.40;;;;;;;;;;6193568;23;20017;-77
2024/01/22 09:44:03;;;;;;;2.55;1.20;;;;;;;;;;6171011;23;20025;-77
2024/01/22 09:46:49;;;;;;;2.58;1.40;;;;;;;;;;6165183;23;20319;-77
2024/01/22 09:49:36;;;;;;;3.85;1.10;;;;;;;;;;6170327;23;20017;-77
2024/01/22 09:52:25;;;;;;;2.38;1.20;;;;;;;;;;6150177;23;20013;-78
2024/01/22 09:55:13;;;;;;;1.65;1.00;;;;;;;;;;6193944;23;20021;-78
2024/01/22 09:58:00;;;;;;;2.85;1.10;;;;;;;;;;6150638;23;20017;-78
2024/01/22 10:00:46;;;;;;;3.00;1.35;;;;;;;;;;6194066;23;20017;-78
2024/01/22 10:03:35;;;;;;;2.95;1.23;;;;;;;;;;6178673;23;19997;-78
2024/01/22 10:06:21;;;;;;;3.63;1.23;;;;;;;;;;6198721;23;20060;-78
2024/01/22 10:09:08;;;;;;;3.05;1.27;;;;;;;;;;6180279;23;20017;-78
2024/01/22 10:11:58;;;;;;;2.25;1.52;;;;;;;;;;6150327;23;20017;-77
2024/01/22 10:14:49;;;;;;;4.25;1.30;;;;;;;;;;6193242;23;20021;-78
2024/01/22 10:17:35;;;;;;;2.63;1.42;;;;;;;;;;6193681;23;20021;-78
2024/01/22 10:20:23;;;;;;;2.45;1.75;;;;;;;;;;6171262;23;20020;-78
2024/01/22 10:23:12;;;;;;;5.30;1.33;;;;;;;;;;6170095;23;20025;-78
2024/01/22 10:26:06;;;;;;;7.10;2.00;;;;;;;;;;6151506;23;20544;-78
2024/01/22 10:29:13;;;;;;;4.00;1.30;;;;;;;;;;6171749;23;20020;-78
2024/01/22 10:32:02;;;;;;;1.85;1.13;;;;;;;;;;6171984;23;20016;-78
2024/01/22 10:34:51;;;;;;;4.78;1.65;;;;;;;;;;6149862;23;20021;-78
2024/01/22 10:37:41;;;;;;;7.43;2.47;;;;;;;;;;6172016;23;20017;-78
2024/01/22 10:40:30;;;;;;;4.65;1.73;;;;;;;;;;6193728;23;20021;-78
2024/01/22 10:43:27;;;;;;;6.97;1.90;;;;;;;;;;6170633;23;20020;-78
2024/01/22 10:46:18;;;;;;;6.38;1.85;;;;;;;;;;6171477;23;20021;-78
2024/01/22 10:49:05;;;;;;;8.38;2.17;;;;;;;;;;6171005;23;20020;-78
2024/01/22 10:51:51;;;;;;;6.20;1.58;;;;;;;;;;6193409;23;20017;-78
2024/01/22 10:54:38;;;;;;;2.38;1.10;;;;;;;;;;6148148;23;20318;-78
2024/01/22 10:57:28;;;;;;;2.20;1.10;;;;;;;;;;6150170;23;20025;-78
2024/01/22 11:00:15;;;;;;;1.30;0.95;;;;;;;;;;6150075;23;20021;-78
2024/01/22 11:03:06;;;;;;;4.82;1.80;;;;;;;;;;6170651;23;20021;-78
2024/01/22 11:05:59;;;;;;;3.75;1.95;;;;;;;;;;6190577;23;20017;-77
2024/01/22 11:08:50;;;;;;;4.38;2.13;;;;;;;;;;6166915;23;20025;-78
2024/01/22 11:11:41;;;;;;;4.15;1.92;;;;;;;;;;6193324;23;20326;-78
2024/01/22 11:14:29;;;;;;;7.18;2.10;;;;;;;;;;6177414;23;20029;-78
2024/01/22 11:17:18;;;;;;;1.63;0.98;;;;;;;;;;6170135;23;20021;-78
2024/01/22 11:20:19;;;;;;;2.72;1.42;;;;;;;;;;6192212;23;20327;-78
2024/01/22 11:23:09;;;;;;;3.08;0.85;;;;;;;;;;6182784;23;20056;-78
2024/01/22 11:26:09;;;;;;;3.50;1.13;;;;;;;;;;6191648;23;20454;-78
2024/01/22 11:29:13;;;;;;;2.65;0.90;;;;;;;;;;6193286;23;20021;-79
2024/01/22 11:32:24;;;;;;;3.85;0.88;;;;;;;;;;6193943;23;20017;-79
2024/01/22 11:35:13;;;;;;;1.70;0.90;;;;;;;;;;6211899;23;20009;-79
2024/01/22 11:38:06;;;;;;;1.20;0.73;;;;;;;;;;6223922;23;20056;-79
2024/01/22 11:40:55;;;;;;;3.80;1.00;;;;;;;;;;6223923;23;20057;-79
2024/01/22 11:43:41;;;;;;;3.53;0.77;;;;;;;;;;6212789;23;20471;-78
2024/01/22 11:46:27;;;;;;;1.67;1.10;;;;;;;;;;6170241;23;20021;-78
2024/01/22 11:49:13;;;;;;;3.70;1.13;;;;;;;;;;6191347;23;20021;-78
2024/01/22 11:52:10;;;;;;;2.78;0.80;;;;;;;;;;6192393;23;20020;-78
2024/01/22 11:55:01;;;;;;;1.80;1.00;;;;;;;;;;6196042;23;20017;-78
2024/01/22 11:57:47;;;;;;;3.28;0.77;;;;;;;;;;6188591;23;20326;-78
2024/01/22 12:00:33;;;;;;;3.20;0.93;;;;;;;;;;6197349;23;20017;-79
2024/01/22 12:03:24;;;;;;;1.10;0.90;;;;;;;;;;6196477;23;20017;-79
2024/01/22 12:06:10;;;;;;;2.22;1.10;;;;;;;;;;6175804;23;20025;-79
2024/01/22 12:08:59;;;;;;;1.77;1.13;;;;;;;;;;6176584;23;20454;-79
2024/01/22 12:11:53;;;;;;;1.50;0.90;;;;;;;;;;6175992;23;20017;-79
2024/01/22 12:14:41;;;;;;;1.70;0.90;;;;;;;;;;6198095;23;20021;-79
2024/01/22 12:17:52;;;;;;;2.60;0.90;;;;;;;;;;6198942;23;20017;-79
2024/01/22 12:20:48;;;;;;;1.83;0.98;;;;;;;;;;6198602;23;20016;-79
2024/01/22 12:24:04;;;;;;;2.10;1.30;;;;;;;;;;6198020;23;20021;-79
2024/01/22 12:27:12;;;;;;;3.33;0.90;;;;;;;;;;6191517;23;20334;-79
2024/01/22 12:30:20;;;;;;;2.42;1.05;;;;;;;;;;6176406;23;20025;-79
2024/01/22 12:34:10;;;;;;;4.15;2.35;;;;;;;;;;6198312;23;20025;-79
2024/01/22 12:37:36;;;;;;;4.38;2.30;;;;;;;;;;6190529;23;20020;-79
2024/01/22 12:40:58;;;;;;;6.68;3.30;;;;;;;;;;6197685;23;20024;-79
2024/01/22 12:43:45;;;;;;;4.43;1.70;;;;;;;;;;6196429;23;20013;-79
2024/01/22 12:46:33;;;;;;;6.07;2.65;;;;;;;;;;6193046;23;20025;-79
2024/01/22 12:49:30;;;;;;;2.78;1.58;;;;;;;;;;6197119;23;20020;-79
2024/01/22 12:52:23;;;;;;;3.53;1.30;;;;;;;;;;6198230;23;20521;-79
2024/01/22 12:55:57;;;;;;;1.83;0.90;;;;;;;;;;6197065;23;20025;-79
2024/01/22 12:58:58;;;;;;;1.58;0.85;;;;;;;;;;6196894;23;20024;-79
2024/01/22 13:02:29;;;;;;;1.27;0.73;;;;;;;;;;6198373;23;20021;-79
2024/01/22 13:05:15;;;;;;;2.78;0.90;;;;;;;;;;6195865;23;20510;-79
2024/01/22 13:08:01;;;;;;;1.67;0.60;;;;;;;;;;6196856;23;20017;-79
2024/01/22 13:10:49;;;;;;;1.58;1.33;;;;;;;;;;6192451;23;20017;-78
2024/01/22 13:13:35;;;;;;;1.35;0.93;;;;;;;;;;6191919;23;20338;-78
2024/01/22 13:16:22;;;;;;;1.30;0.55;;;;;;;;;;6188041;23;20021;-78
2024/01/22 13:19:08;;;;;;;3.13;0.80;;;;;;;;;;6170859;23;20025;-78
2024/01/22 13:21:58;;;;;;;1.33;0.68;;;;;;;;;;6192001;23;20017;-78
2024/01/22 13:24:44;;;;;;;1.08;0.75;;;;;;;;;;6170795;23;20339;-78
2024/01/22 13:27:30;;;;;;;2.33;0.85;;;;;;;;;;6183582;23;20327;-78
2024/01/22 13:30:18;;;;;;;1.48;0.73;;;;;;;;;;6171454;23;20021;-78
2024/01/22 13:33:11;;;;;;;1.45;0.70;;;;;;;;;;6192429;23;20021;-78
2024/01/22 13:35:59;;;;;;;2.05;0.80;;;;;;;;;;6171733;23;20466;-78
2024/01/22 13:38:45;;;;;;;1.10;0.80;;;;;;;;;;6194280;23;20017;-78
2024/01/22 13:41:32;;;;;;;0.90;0.50;;;;;;;;;;6193939;23;20322;-78
2024/01/22 13:44:18;;;;;;;2.15;0.70;;;;;;;;;;6192109;23;20017;-78
2024/01/22 13:47:06;;;;;;;1.42;0.75;;;;;;;;;;6187100;23;20469;-77
2024/01/22 13:49:53;;;;;;;1.67;0.73;;;;;;;;;;6192499;23;20017;-78
2024/01/22 13:52:39;;;;;;;0.98;0.60;;;;;;;;;;6171272;23;20327;-78
2024/01/22 13:55:27;;;;;;;1.10;0.50;;;;;;;;;;6192475;23;20457;-78
2024/01/22 13:58:15;;;;;;;1.35;0.65;;;;;;;;;;6193841;23;20024;-78
2024/01/22 14:01:01;;;;;;;0.65;0.50;;;;;;;;;;6171425;23;20339;-78
2024/01/22 14:03:50;;;;;;;1.33;0.60;;;;;;;;;;6191762;23;20449;-78
2024/01/22 14:06:37;;;;;;;1.80;0.75;;;;;;;;;;6170770;23;20450;-78
2024/01/22 14:09:23;;;;;;;1.75;0.55;;;;;;;;;;6192106;23;20601;-78
2024/01/22 14:12:09;;;;;;;1.08;0.65;;;;;;;;;;6192498;23;20013;-78
2024/01/22 14:14:55;;;;;;;1.05;0.60;;;;;;;;;;6193304;23;20025;-78
2024/01/22 14:17:44;;;;;;;1.05;0.80;;;;;;;;;;6182155;23;20017;-78
2024/01/22 14:20:29;;;;;;;1.90;0.50;;;;;;;;;;6193218;23;20017;-78
2024/01/22 14:23:19;;;;;;;0.60;0.40;;;;;;;;;;6170651;23;20029;-78
2024/01/22 14:26:08;;;;;;;0.77;0.40;;;;;;;;;;6192034;23;20017;-78
2024/01/22 14:28:54;;;;;;;0.80;0.40;;;;;;;;;;6192100;23;20017;-78
2024/01/22 14:31:40;;;;;;;0.47;0.40;;;;;;;;;;6195111;23;20266;-78
2024/01/22 14:34:25;;;;;;;2.33;0.80;;;;;;;;;;6195620;23;20162;-78
2024/01/22 14:37:14;;;;;;;1.05;0.40;;;;;;;;;;6175202;23;20017;-78
2024/01/22 14:40:06;;;;;;;1.08;0.40;;;;;;;;;;6195513;23;20326;-79
2024/01/22 14:42:51;;;;;;;1.50;0.75;;;;;;;;;;6192788;23;20021;-79
2024/01/22 14:45:37;;;;;;;1.17;0.77;;;;;;;;;;6171616;23;20021;-79
2024/01/22 14:48:31;;;;;;;1.73;0.70;;;;;;;;;;6195299;23;20017;-79
2024/01/22 14:51:19;;;;;;;2.40;0.70;;;;;;;;;;6193158;23;20017;-79
2024/01/22 14:54:05;;;;;;;1.00;0.47;;;;;;;;;;6192521;23;20017;-79
2024/01/22 14:56:55;;;;;;;1.77;0.73;;;;;;;;;;6172456;23;20017;-79
2024/01/22 14:59:43;;;;;;;2.03;0.77;;;;;;;;;;6196159;23;20021;-79
2024/01/22 15:02:29;;;;;;;1.02;0.70;;;;;;;;;;6195729;23;20013;-79
2024/01/22 15:05:18;;;;;;;1.63;0.63;;;;;;;;;;6193316;23;20016;-78
2024/01/22 15:08:04;;;;;;;1.35;0.63;;;;;;;;;;6194361;23;20017;-78
2024/01/22 15:10:52;;;;;;;2.20;0.75;;;;;;;;;;6172317;23;20025;-78
2024/01/22 15:13:42;;;;;;;2.47;0.70;;;;;;;;;;6185321;23;20520;-78
2024/01/22 15:16:33;;;;;;;1.02;0.68;;;;;;;;;;6191984;23;20021;-78
2024/01/22 15:19:19;;;;;;;1.45;0.57;;;;;;;;;;6194334;23;20021;-78
2024/01/22 15:22:06;;;;;;;3.55;0.80;;;;;;;;;;6191817;23;20331;-78
2024/01/22 15:24:54;;;;;;;2.50;1.33;;;;;;;;;;6191256;23;20021;-78
2024/01/22 15:27:40;;;;;;;1.33;0.52;;;;;;;;;;6191142;23;20737;-78
2024/01/22 15:30:27;;;;;;;1.80;0.70;;;;;;;;;;6195801;23;20770;-78
2024/01/22 15:33:15;;;;;;;2.95;0.73;;;;;;;;;;6194977;23;20021;-78
2024/01/22 15:36:01;;;;;;;3.25;1.00;;;;;;;;;;6172245;23;20029;-77
2024/01/22 15:38:50;;;;;;;2.88;0.60;;;;;;;;;;6193226;23;20334;-77
2024/01/22 15:41:35;;;;;;;2.38;0.65;;;;;;;;;;6193493;23;20021;-77
2024/01/22 15:44:21;;;;;;;1.42;1.00;;;;;;;;;;6193247;23;20017;-77
2024/01/22 15:47:09;;;;;;;2.75;0.93;;;;;;;;;;6172244;23;20020;-77
2024/01/22 15:49:57;;;;;;;4.18;1.00;;;;;;;;;;6193372;23;20457;-77
2024/01/22 15:52:45;;;;;;;1.20;0.80;;;;;;;;;;6172759;23;20017;-78
2024/01/22 15:55:37;;;;;;;3.03;1.02;;;;;;;;;;6193665;23;20020;-78
2024/01/22 15:58:28;;;;;;;6.97;1.30;;;;;;;;;;6193480;23;20017;-78
2024/01/22 16:01:18;;;;;;;1.88;0.98;;;;;;;;;;6193248;23;20021;-78
2024/01/22 16:04:07;;;;;;;1.67;1.00;;;;;;;;;;6194048;23;20354;-78
2024/01/22 16:06:56;;;;;;;1.25;0.85;;;;;;;;;;6192736;23;20029;-78
2024/01/22 16:09:46;;;;;;;4.75;1.08;;;;;;;;;;6193261;23;20024;-78
2024/01/22 16:12:35;;;;;;;2.65;1.10;;;;;;;;;;6195464;23;20021;-78
2024/01/22 16:15:23;;;;;;;3.45;1.00;;;;;;;;;;6180691;23;20021;-78
2024/01/22 16:18:12;;;;;;;2.38;1.25;;;;;;;;;;6201457;23;20021;-78
2024/01/22 16:21:01;;;;;;;2.35;1.45;;;;;;;;;;6202493;23;20020;-78
2024/01/22 16:23:47;;;;;;;3.08;0.95;;;;;;;;;;6201596;23;20016;-78
2024/01/22 16:26:34;;;;;;;1.45;0.90;;;;;;;;;;6214576;23;20021;-77
2024/01/22 16:29:22;;;;;;;2.92;1.10;;;;;;;;;;6182090;23;20017;-77
2024/01/22 16:32:08;;;;;;;4.18;1.15;;;;;;;;;;6201786;23;20021;-77
2024/01/22 16:34:53;;;;;;;4.57;0.73;;;;;;;;;;6180433;23;20016;-77
2024/01/22 16:37:43;;;;;;;7.55;3.25;;;;;;;;;;6181586;23;20020;-77